createdAt,value
2023-03-29T00:02:20.096Z,11.47
2023-03-29T00:04:47.430Z,11.46
2023-03-29T00:07:14.844Z,11.57
2023-03-29T00:09:42.546Z,11.72
2023-03-29T00:12:11.672Z,11.65
2023-03-29T00:14:38.923Z,11.61
2023-03-29T00:17:06.473Z,11.79
2023-03-29T00:19:36.747Z,11.62
2023-03-29T00:22:07.991Z,11.36
2023-03-29T00:24:36.209Z,11.49
2023-03-29T00:27:03.535Z,11.44
2023-03-29T00:29:30.777Z,11.65
2023-03-29T00:31:58.635Z,11.65
2023-03-29T00:34:30.776Z,11.57
2023-03-29T00:36:58.808Z,11.58
2023-03-29T00:39:26.589Z,11.70
2023-03-29T00:41:56.047Z,11.78
2023-03-29T00:44:57.980Z,11.92
2023-03-29T00:47:41.598Z,11.87
2023-03-29T00:50:15.809Z,11.82
2023-03-29T00:52:46.347Z,11.98
2023-03-29T00:55:18.889Z,12.04
2023-03-29T00:57:46.946Z,11.83
2023-03-29T01:00:18.157Z,11.64
2023-03-29T01:02:51.181Z,11.68
2023-03-29T01:05:22.698Z,11.60
2023-03-29T01:07:58.240Z,11.77
2023-03-29T01:10:31.883Z,11.56
2023-03-29T01:13:05.179Z,11.62
2023-03-29T01:15:33.266Z,11.65
2023-03-29T01:18:02.034Z,11.83
2023-03-29T01:20:44.982Z,11.65
2023-03-29T01:23:31.688Z,11.81
2023-03-29T01:26:13.926Z,11.91
2023-03-29T01:28:51.786Z,11.83
2023-03-29T01:31:27.352Z,11.51
2023-03-29T01:34:06.028Z,11.43
2023-03-29T01:36:41.665Z,11.44
2023-03-29T01:39:09.165Z,11.47
2023-03-29T01:42:01.998Z,11.45
2023-03-29T01:44:41.538Z,11.74
2023-03-29T01:47:13.238Z,11.65
2023-03-29T01:49:45.339Z,11.58
2023-03-29T01:52:20.723Z,11.57
2023-03-29T01:54:55.225Z,11.43
2023-03-29T01:57:24.977Z,11.41
2023-03-29T01:59:54.722Z,11.59
2023-03-29T02:02:24.116Z,11.67
2023-03-29T02:04:54.080Z,11.67
2023-03-29T02:07:24.833Z,11.43
2023-03-29T02:09:53.760Z,11.53
2023-03-29T02:12:22.226Z,11.29
2023-03-29T02:14:49.583Z,11.33
2023-03-29T02:17:22.215Z,11.35
2023-03-29T02:19:55.825Z,11.56
2023-03-29T02:22:33.362Z,11.38
2023-03-29T02:25:01.783Z,11.56
2023-03-29T02:27:29.966Z,11.38
2023-03-29T02:29:58.341Z,11.48
2023-03-29T02:32:31.001Z,11.25
2023-03-29T02:35:01.939Z,11.25
2023-03-29T02:37:31.347Z,11.20
2023-03-29T02:39:59.545Z,11.38
2023-03-29T02:42:28.647Z,11.45
2023-03-29T02:44:57.793Z,11.42
2023-03-29T02:47:31.552Z,11.21
2023-03-29T02:50:02.069Z,11.26
2023-03-29T02:52:35.640Z,11.13
2023-03-29T02:55:04.267Z,11.19
2023-03-29T02:57:32.468Z,11.16
2023-03-29T03:00:01.183Z,11.05
2023-03-29T03:02:29.651Z,11.07
2023-03-29T03:04:57.804Z,11.17
2023-03-29T03:07:25.221Z,11.28
2023-03-29T03:09:52.757Z,11.18
2023-03-29T03:12:20.175Z,10.92
2023-03-29T03:14:47.445Z,11.01
2023-03-29T03:17:14.680Z,11.24
2023-03-29T03:19:42.676Z,11.28
2023-03-29T03:22:11.701Z,11.19
2023-03-29T03:24:38.984Z,11.14
2023-03-29T03:27:06.473Z,11.19
2023-03-29T03:29:33.779Z,11.29
2023-03-29T03:32:16.266Z,11.25
2023-03-29T03:35:11.635Z,11.46
2023-03-29T03:37:40.900Z,11.71
2023-03-29T03:40:11.643Z,11.83
2023-03-29T03:42:41.054Z,11.60
2023-03-29T03:45:10.622Z,11.79
2023-03-29T03:47:52.580Z,11.90
2023-03-29T03:50:25.266Z,11.96
2023-03-29T03:52:52.785Z,11.92
2023-03-29T03:55:22.084Z,11.79
2023-03-29T03:58:03.258Z,11.72
2023-03-29T04:00:31.046Z,12.00
2023-03-29T04:03:17.203Z,12.07
2023-03-29T04:05:45.910Z,12.46
2023-03-29T04:08:14.989Z,12.44
2023-03-29T04:11:01.205Z,12.53
2023-03-29T04:13:37.250Z,12.46
2023-03-29T04:16:28.578Z,12.42
2023-03-29T04:19:00.749Z,12.45
2023-03-29T04:21:29.050Z,12.45
2023-03-29T04:23:56.324Z,12.58
2023-03-29T04:26:23.952Z,12.73
2023-03-29T04:28:57.429Z,12.60
2023-03-29T04:31:36.048Z,12.71
2023-03-29T04:34:14.797Z,12.64
2023-03-29T04:36:43.609Z,12.76
2023-03-29T04:39:20.507Z,12.70
2023-03-29T04:41:52.890Z,12.72
2023-03-29T04:44:24.079Z,12.77
2023-03-29T04:46:51.463Z,12.51
2023-03-29T04:49:37.741Z,12.60
2023-03-29T04:52:09.843Z,12.58
2023-03-29T04:54:38.116Z,12.44
2023-03-29T04:57:21.905Z,12.60
2023-03-29T05:00:15.344Z,12.55
2023-03-29T05:03:11.486Z,12.50
2023-03-29T05:05:43.570Z,12.31
2023-03-29T05:08:12.292Z,12.14
2023-03-29T05:10:59.688Z,12.36
2023-03-29T05:13:28.844Z,12.31
2023-03-29T05:15:57.249Z,12.47
2023-03-29T05:18:25.376Z,12.44
2023-03-29T05:20:54.177Z,12.54
2023-03-29T05:23:22.704Z,12.60
2023-03-29T05:26:09.961Z,12.16
2023-03-29T05:28:39.520Z,12.30
2023-03-29T05:31:08.509Z,12.24
2023-03-29T05:33:38.278Z,12.41
2023-03-29T05:36:13.653Z,12.25
2023-03-29T05:38:46.810Z,12.43
2023-03-29T05:41:15.816Z,12.36
2023-03-29T05:44:01.744Z,12.33
2023-03-29T05:46:30.203Z,12.28
2023-03-29T05:49:01.791Z,12.38
2023-03-29T05:51:47.274Z,12.41
2023-03-29T05:54:15.767Z,12.28
2023-03-29T05:56:43.485Z,12.33
2023-03-29T05:59:11.400Z,12.41
2023-03-29T06:01:40.102Z,12.46
2023-03-29T06:04:12.604Z,12.31
2023-03-29T06:06:46.944Z,12.44
2023-03-29T06:09:14.324Z,12.59
2023-03-29T06:11:52.901Z,12.62
2023-03-29T06:14:33.911Z,12.55
2023-03-29T06:17:11.008Z,12.70
2023-03-29T06:19:38.870Z,12.75
2023-03-29T06:22:06.234Z,12.63
2023-03-29T06:24:34.875Z,12.73
2023-03-29T06:27:08.812Z,12.88
2023-03-29T06:29:36.118Z,12.85
2023-03-29T06:32:03.957Z,12.80
2023-03-29T06:34:50.017Z,12.87
2023-03-29T06:37:32.987Z,12.54
2023-03-29T06:40:13.423Z,12.61
2023-03-29T06:42:46.102Z,12.47
2023-03-29T06:45:34.547Z,12.60
2023-03-29T06:48:06.327Z,12.56
2023-03-29T06:50:34.447Z,12.70
2023-03-29T06:53:10.336Z,12.68
2023-03-29T06:55:39.063Z,12.82
2023-03-29T06:58:23.188Z,12.89
2023-03-29T07:00:50.850Z,12.97
2023-03-29T07:03:30.437Z,13.07
2023-03-29T07:06:04.300Z,13.11
2023-03-29T07:08:35.266Z,13.22
2023-03-29T07:11:07.128Z,13.27
2023-03-29T07:13:46.194Z,13.14
2023-03-29T07:16:18.086Z,13.09
2023-03-29T07:19:08.929Z,13.21
2023-03-29T07:21:59.303Z,13.24
2023-03-29T07:24:38.317Z,13.34
2023-03-29T07:27:05.738Z,13.47
2023-03-29T07:29:34.010Z,13.49
2023-03-29T07:32:01.322Z,13.52
2023-03-29T07:34:43.960Z,13.56
2023-03-29T07:37:20.934Z,13.61
2023-03-29T07:39:48.274Z,13.70
2023-03-29T07:42:28.865Z,13.87
2023-03-29T07:44:56.393Z,13.95
2023-03-29T07:47:24.824Z,14.03
2023-03-29T07:49:52.131Z,14.20
2023-03-29T07:52:19.433Z,14.16
2023-03-29T07:54:46.732Z,14.22
2023-03-29T07:57:44.203Z,14.35
2023-03-29T08:00:16.738Z,14.20
2023-03-29T08:02:54.888Z,14.18
2023-03-29T08:05:33.847Z,14.30
2023-03-29T08:08:10.721Z,14.57
2023-03-29T08:11:04.496Z,14.69
2023-03-29T08:13:44.629Z,14.79
2023-03-29T08:16:27.319Z,15.03
2023-03-29T08:19:14.789Z,15.04
2023-03-29T08:22:00.716Z,15.04
2023-03-29T08:24:34.611Z,15.19
2023-03-29T08:27:06.207Z,15.26
2023-03-29T08:29:33.861Z,15.64
2023-03-29T08:32:01.175Z,15.66
2023-03-29T08:34:31.706Z,15.59
2023-03-29T08:37:21.924Z,15.44
2023-03-29T08:39:51.588Z,15.44
2023-03-29T08:42:39.021Z,15.60
2023-03-29T08:45:16.220Z,15.72
2023-03-29T08:48:08.419Z,15.85
2023-03-29T08:50:42.546Z,15.87
2023-03-29T08:53:24.810Z,16.00
2023-03-29T08:56:20.985Z,15.90
2023-03-29T08:59:26.389Z,16.01
2023-03-29T09:01:56.000Z,16.12
2023-03-29T09:04:29.583Z,16.20
2023-03-29T09:07:20.120Z,16.19
2023-03-29T09:09:48.102Z,16.29
2023-03-29T09:12:49.985Z,16.39
2023-03-29T09:15:56.799Z,16.65
2023-03-29T09:19:19.401Z,16.97
2023-03-29T09:21:59.288Z,16.66
2023-03-29T09:24:46.748Z,16.70
2023-03-29T09:27:27.360Z,16.98
2023-03-29T09:30:27.964Z,17.30
2023-03-29T09:33:23.369Z,17.45
2023-03-29T09:36:21.224Z,17.70
2023-03-29T09:38:54.217Z,17.41
2023-03-29T09:41:54.132Z,17.20
2023-03-29T09:44:31.509Z,17.53
2023-03-29T09:47:24.013Z,17.53
2023-03-29T09:49:57.076Z,17.55
2023-03-29T09:52:24.558Z,17.86
2023-03-29T09:55:14.320Z,17.95
2023-03-29T09:57:59.102Z,17.74
2023-03-29T10:00:27.739Z,17.73
2023-03-29T10:02:57.783Z,17.78
2023-03-29T10:05:38.659Z,17.93
2023-03-29T10:08:29.676Z,18.09
2023-03-29T10:11:00.725Z,18.20
2023-03-29T10:13:31.325Z,18.21
2023-03-29T10:16:17.249Z,18.23
2023-03-29T10:18:44.788Z,18.17
2023-03-29T10:21:17.148Z,18.34
2023-03-29T10:23:44.649Z,18.27
2023-03-29T10:26:34.510Z,18.00
2023-03-29T10:29:03.571Z,18.21
2023-03-29T10:31:33.122Z,18.17
2023-03-29T10:34:05.552Z,18.12
2023-03-29T10:36:33.171Z,18.48
2023-03-29T10:39:05.921Z,18.37
2023-03-29T10:41:35.837Z,18.61
2023-03-29T10:44:03.697Z,18.64
2023-03-29T10:46:33.799Z,18.75
2023-03-29T10:49:10.327Z,19.02
2023-03-29T10:51:37.693Z,18.92
2023-03-29T10:54:07.157Z,19.04
2023-03-29T10:56:40.265Z,18.96
2023-03-29T10:59:24.085Z,19.06
2023-03-29T11:02:01.089Z,18.89
2023-03-29T11:04:41.354Z,19.22
2023-03-29T11:07:14.708Z,19.21
2023-03-29T11:09:50.251Z,19.32
2023-03-29T11:12:40.474Z,19.31
2023-03-29T11:15:21.438Z,19.33
2023-03-29T11:18:26.261Z,19.49
2023-03-29T11:21:18.374Z,19.65
2023-03-29T11:24:17.976Z,19.24
2023-03-29T11:26:54.858Z,19.57
2023-03-29T11:29:28.765Z,19.28
2023-03-29T11:32:15.420Z,19.30
2023-03-29T11:35:01.607Z,19.56
2023-03-29T11:37:37.866Z,19.88
2023-03-29T11:40:31.619Z,19.97
2023-03-29T11:43:02.763Z,19.79
2023-03-29T11:45:39.853Z,19.86
2023-03-29T11:48:14.103Z,20.03
2023-03-29T11:50:48.705Z,19.92
2023-03-29T11:53:56.692Z,19.96
2023-03-29T11:56:33.715Z,20.17
2023-03-29T11:59:07.535Z,20.16
2023-03-29T12:01:38.730Z,20.07
2023-03-29T12:04:11.359Z,20.14
2023-03-29T12:06:54.694Z,19.89
2023-03-29T12:09:42.367Z,19.73
2023-03-29T12:12:27.934Z,20.20
2023-03-29T12:15:11.278Z,20.34
2023-03-29T12:17:44.226Z,20.38
2023-03-29T12:20:28.331Z,20.17
2023-03-29T12:22:59.133Z,20.32
2023-03-29T12:25:30.975Z,20.63
2023-03-29T12:28:41.340Z,20.38
2023-03-29T12:31:14.481Z,20.57
2023-03-29T12:33:59.952Z,20.48
2023-03-29T12:36:48.474Z,20.72
2023-03-29T12:39:36.824Z,20.81
2023-03-29T12:42:33.249Z,20.76
2023-03-29T12:45:39.892Z,20.85
2023-03-29T12:48:28.023Z,20.77
2023-03-29T12:51:08.426Z,20.81
2023-03-29T12:53:51.058Z,20.83
2023-03-29T12:56:24.873Z,20.78
2023-03-29T12:59:36.332Z,20.78
2023-03-29T13:02:27.590Z,20.85
2023-03-29T13:04:57.193Z,20.47
2023-03-29T13:07:28.033Z,20.49
2023-03-29T13:10:03.851Z,20.58
2023-03-29T13:12:46.343Z,20.66
2023-03-29T13:15:23.297Z,20.92
2023-03-29T13:18:14.328Z,20.75
2023-03-29T13:21:04.163Z,20.37
2023-03-29T13:23:41.188Z,20.28
2023-03-29T13:26:46.315Z,20.31
2023-03-29T13:29:33.713Z,20.56
2023-03-29T13:32:06.539Z,20.97
2023-03-29T13:34:50.692Z,20.81
2023-03-29T13:37:47.385Z,21.04
2023-03-29T13:40:26.544Z,21.36
2023-03-29T13:43:30.930Z,21.54
2023-03-29T13:45:58.593Z,21.35
2023-03-29T13:48:46.441Z,21.43
2023-03-29T13:51:13.684Z,21.49
2023-03-29T13:53:54.350Z,21.62
2023-03-29T13:56:28.932Z,21.80
2023-03-29T13:59:10.336Z,21.67
2023-03-29T14:01:50.676Z,21.95
2023-03-29T14:04:24.927Z,21.95
2023-03-29T14:06:56.210Z,21.93
2023-03-29T14:09:28.328Z,21.78
2023-03-29T14:11:56.837Z,21.69
2023-03-29T14:14:26.206Z,21.69
2023-03-29T14:16:55.504Z,21.79
2023-03-29T14:19:34.340Z,21.87
2023-03-29T14:22:02.796Z,22.02
2023-03-29T14:24:40.406Z,21.95
2023-03-29T14:27:10.130Z,21.90
2023-03-29T14:29:37.421Z,21.93
2023-03-29T14:32:16.812Z,22.00
2023-03-29T14:34:48.252Z,21.85
2023-03-29T14:37:23.989Z,21.75
2023-03-29T14:39:51.400Z,21.89
2023-03-29T14:42:21.372Z,21.91
2023-03-29T14:44:50.191Z,22.26
2023-03-29T14:47:28.655Z,21.97
2023-03-29T14:50:00.526Z,22.06
2023-03-29T14:52:29.622Z,22.01
2023-03-29T14:54:59.354Z,21.99
2023-03-29T14:57:29.231Z,21.91
2023-03-29T15:00:02.260Z,21.84
2023-03-29T15:02:32.478Z,21.78
2023-03-29T15:05:06.273Z,21.59
2023-03-29T15:07:36.448Z,21.61
2023-03-29T15:10:07.955Z,21.97
2023-03-29T15:12:37.960Z,21.76
2023-03-29T15:15:07.699Z,21.50
2023-03-29T15:17:50.216Z,22.00
2023-03-29T15:20:24.174Z,21.80
2023-03-29T15:22:56.599Z,21.54
2023-03-29T15:25:27.480Z,21.82
2023-03-29T15:27:59.541Z,21.82
2023-03-29T15:30:34.384Z,21.68
2023-03-29T15:33:09.316Z,21.78
2023-03-29T15:35:38.148Z,21.93
2023-03-29T15:38:06.991Z,22.10
2023-03-29T15:40:34.424Z,21.94
2023-03-29T15:43:01.915Z,21.86
2023-03-29T15:45:29.399Z,22.11
2023-03-29T15:47:57.059Z,21.94
2023-03-29T15:50:24.680Z,22.01
2023-03-29T15:52:52.887Z,21.89
2023-03-29T15:55:20.814Z,22.00
2023-03-29T15:57:48.785Z,22.13
2023-03-29T16:00:17.986Z,22.19
2023-03-29T16:02:45.372Z,21.55
2023-03-29T16:05:13.164Z,21.70
2023-03-29T16:07:40.503Z,21.52
2023-03-29T16:10:09.125Z,21.63
2023-03-29T16:12:38.475Z,21.69
2023-03-29T16:15:12.291Z,21.91
2023-03-29T16:17:39.696Z,21.58
2023-03-29T16:20:08.675Z,21.68
2023-03-29T16:22:37.100Z,22.04
2023-03-29T16:25:06.673Z,22.34
2023-03-29T16:27:34.004Z,22.07
2023-03-29T16:30:01.335Z,21.81
2023-03-29T16:32:28.798Z,21.80
2023-03-29T16:34:58.414Z,22.05
2023-03-29T16:37:25.859Z,22.32
2023-03-29T16:39:53.765Z,22.16
2023-03-29T16:42:21.550Z,21.68
2023-03-29T16:44:49.078Z,21.70
2023-03-29T16:47:16.602Z,21.93
2023-03-29T16:49:45.838Z,21.73
2023-03-29T16:52:14.054Z,22.00
2023-03-29T16:54:42.509Z,21.83
2023-03-29T16:57:10.401Z,21.51
2023-03-29T16:59:38.060Z,21.51
2023-03-29T17:02:05.347Z,21.65
2023-03-29T17:04:32.792Z,21.38
2023-03-29T17:07:00.049Z,21.48
2023-03-29T17:09:29.303Z,21.38
2023-03-29T17:11:57.275Z,21.68
2023-03-29T17:14:25.503Z,21.66
2023-03-29T17:16:53.641Z,21.64
2023-03-29T17:19:21.435Z,21.58
2023-03-29T17:21:49.515Z,21.57
2023-03-29T17:24:17.272Z,21.74
2023-03-29T17:26:45.799Z,21.69
2023-03-29T17:29:13.892Z,21.39
2023-03-29T17:31:47.546Z,21.39
2023-03-29T17:34:16.415Z,21.50
2023-03-29T17:36:45.725Z,21.24
2023-03-29T17:39:15.333Z,21.22
2023-03-29T17:41:42.847Z,21.13
2023-03-29T17:44:10.498Z,21.29
2023-03-29T17:46:38.678Z,21.18
2023-03-29T17:49:09.232Z,21.14
2023-03-29T17:51:36.530Z,21.12
2023-03-29T17:54:06.393Z,21.08
2023-03-29T17:56:35.025Z,20.82
2023-03-29T17:59:07.463Z,20.93
2023-03-29T18:01:36.405Z,20.62
2023-03-29T18:04:06.438Z,20.71
2023-03-29T18:06:33.713Z,20.74
2023-03-29T18:09:01.578Z,20.71
2023-03-29T18:11:29.072Z,20.65
2023-03-29T18:13:59.559Z,20.43
2023-03-29T18:16:27.206Z,20.32
2023-03-29T18:18:54.979Z,20.48
2023-03-29T18:21:22.348Z,20.54
2023-03-29T18:23:52.866Z,20.45
2023-03-29T18:26:22.861Z,20.55
2023-03-29T18:28:51.135Z,20.65
2023-03-29T18:31:19.816Z,20.84
2023-03-29T18:33:47.583Z,20.65
2023-03-29T18:36:15.997Z,20.71
2023-03-29T18:38:43.706Z,20.67
2023-03-29T18:41:12.754Z,20.60
2023-03-29T18:43:41.153Z,20.54
2023-03-29T18:46:08.757Z,20.53
2023-03-29T18:48:39.101Z,20.40
2023-03-29T18:51:08.290Z,20.42
2023-03-29T18:53:36.444Z,20.39
2023-03-29T18:56:04.493Z,20.41
2023-03-29T18:58:32.272Z,20.31
2023-03-29T19:01:04.222Z,20.37
2023-03-29T19:03:32.871Z,20.48
2023-03-29T19:06:01.697Z,20.28
2023-03-29T19:08:29.362Z,20.35
2023-03-29T19:11:05.583Z,20.20
2023-03-29T19:13:33.411Z,20.09
2023-03-29T19:16:00.771Z,19.97
2023-03-29T19:18:28.333Z,19.83
2023-03-29T19:20:56.195Z,19.75
2023-03-29T19:23:28.339Z,19.92
2023-03-29T19:26:01.383Z,19.80
2023-03-29T19:28:29.505Z,19.82
2023-03-29T19:30:58.990Z,20.08
2023-03-29T19:33:26.816Z,20.28
2023-03-29T19:35:54.173Z,20.18
2023-03-29T19:38:21.818Z,19.77
2023-03-29T19:40:50.953Z,19.85
2023-03-29T19:43:18.819Z,19.82
2023-03-29T19:45:47.529Z,19.84
2023-03-29T19:48:22.519Z,19.78
2023-03-29T19:50:51.482Z,20.11
2023-03-29T19:53:18.885Z,20.00
2023-03-29T19:55:46.236Z,19.94
2023-03-29T19:58:13.492Z,19.92
2023-03-29T20:00:41.768Z,19.73
2023-03-29T20:03:09.998Z,19.72
2023-03-29T20:05:38.603Z,19.48
2023-03-29T20:08:07.169Z,19.63
2023-03-29T20:10:35.636Z,19.63
2023-03-29T20:13:03.567Z,19.78
2023-03-29T20:15:31.202Z,19.67
2023-03-29T20:18:00.426Z,19.59
2023-03-29T20:20:28.545Z,19.61
2023-03-29T20:23:04.587Z,19.62
2023-03-29T20:25:34.246Z,19.40
2023-03-29T20:28:01.511Z,19.70
2023-03-29T20:30:28.721Z,19.57
2023-03-29T20:32:56.079Z,19.71
2023-03-29T20:35:23.333Z,19.72
2023-03-29T20:37:50.748Z,19.75
2023-03-29T20:40:18.021Z,19.91
2023-03-29T20:42:46.395Z,19.84
2023-03-29T20:45:18.668Z,19.86
2023-03-29T20:47:50.462Z,19.75
2023-03-29T20:50:18.987Z,19.83
2023-03-29T20:52:46.403Z,19.77
2023-03-29T20:55:16.695Z,19.68
2023-03-29T20:57:44.019Z,19.71
2023-03-29T21:00:12.023Z,19.71
2023-03-29T21:02:39.508Z,19.42
2023-03-29T21:05:08.602Z,19.40
2023-03-29T21:07:36.462Z,19.36
2023-03-29T21:10:04.221Z,19.53
2023-03-29T21:12:31.606Z,19.33
2023-03-29T21:14:58.876Z,19.56
2023-03-29T21:17:26.999Z,19.60
2023-03-29T21:19:55.076Z,19.65
2023-03-29T21:22:23.253Z,19.64
2023-03-29T21:24:51.061Z,19.62
2023-03-29T21:27:18.381Z,19.39
2023-03-29T21:29:45.644Z,19.38
2023-03-29T21:32:12.878Z,19.39
2023-03-29T21:34:40.548Z,19.52
2023-03-29T21:37:07.967Z,19.42
2023-03-29T21:39:35.484Z,19.74
2023-03-29T21:42:02.902Z,19.62
2023-03-29T21:44:32.583Z,19.18
2023-03-29T21:47:02.112Z,19.29
2023-03-29T21:49:29.358Z,19.48
2023-03-29T21:51:56.938Z,19.24
2023-03-29T21:54:24.260Z,19.21
2023-03-29T21:56:51.729Z,19.60
2023-03-29T21:59:19.046Z,19.56
2023-03-29T22:01:46.519Z,19.29
2023-03-29T22:04:22.609Z,19.30
2023-03-29T22:06:56.711Z,19.48
2023-03-29T22:09:26.741Z,19.40
2023-03-29T22:11:53.984Z,19.56
2023-03-29T22:14:22.079Z,19.33
2023-03-29T22:16:49.356Z,19.27
2023-03-29T22:19:16.589Z,19.18
2023-03-29T22:21:44.129Z,19.02
2023-03-29T22:24:11.468Z,19.19
2023-03-29T22:26:38.729Z,19.01
2023-03-29T22:29:06.005Z,18.89
2023-03-29T22:31:33.287Z,18.92
2023-03-29T22:34:02.025Z,18.78
2023-03-29T22:36:31.118Z,18.82
2023-03-29T22:38:58.469Z,18.50
2023-03-29T22:41:27.668Z,18.47
2023-03-29T22:43:56.925Z,18.25
2023-03-29T22:46:24.823Z,18.35
2023-03-29T22:48:52.359Z,18.25
2023-03-29T22:51:20.378Z,18.28
2023-03-29T22:53:47.686Z,18.30
2023-03-29T22:56:16.011Z,18.31
2023-03-29T22:58:43.615Z,18.47
2023-03-29T23:01:13.876Z,18.56
2023-03-29T23:03:41.799Z,18.48
2023-03-29T23:06:09.112Z,18.42
2023-03-29T23:08:36.392Z,18.56
2023-03-29T23:11:04.063Z,18.45
2023-03-29T23:13:33.382Z,18.82
2023-03-29T23:16:02.355Z,18.56
2023-03-29T23:18:31.070Z,18.47
2023-03-29T23:20:58.971Z,18.52
2023-03-29T23:23:26.922Z,18.47
2023-03-29T23:25:55.857Z,18.34
2023-03-29T23:28:27.053Z,18.01
2023-03-29T23:31:00.337Z,18.14
2023-03-29T23:33:33.676Z,18.21
2023-03-29T23:36:05.515Z,17.89
2023-03-29T23:38:34.362Z,17.82
2023-03-29T23:41:03.928Z,17.57
2023-03-29T23:43:33.686Z,17.71
2023-03-29T23:46:03.047Z,17.99
2023-03-29T23:48:31.620Z,17.85
2023-03-29T23:50:58.948Z,18.02
2023-03-29T23:53:28.993Z,17.83
2023-03-29T23:55:59.440Z,17.72
2023-03-29T23:58:30.353Z,17.63
